Time;durP1;ratioP1;P1;durP2;ratioP2;P2;SDS_P1;SDS_P2;PMS_P1;PMS_P2;Temp;Humidity;BMP_temperature;BMP_pressure;BME280_temperature;BME280_humidity;BME280_pressure;Samples;Min_cycle;Max_cycle;Signal;HPM_P1;HPM_P2
2023/03/02 00:00:39;;;;;;;53.93;23.93;;;0.40;1.00;;;;;;6372122;22;20696;-95
2023/03/02 00:03:06;;;;;;;47.93;23.17;;;0.30;1.00;;;;;;6372121;22;20272;-94
2023/03/02 00:05:34;;;;;;;49.50;23.67;;;0.30;1.00;;;;;;6372426;22;20183;-94
2023/03/02 00:08:04;;;;;;;43.43;23.10;;;0.20;1.00;;;;;;6372420;22;20496;-93
2023/03/02 00:10:31;;;;;;;49.00;23.73;;;0.20;1.00;;;;;;6372509;22;20165;-93
2023/03/02 00:12:58;;;;;;;41.90;21.50;;;0.10;1.00;;;;;;6372143;22;20175;-94
2023/03/02 00:15:26;;;;;;;43.47;21.33;;;0.10;1.00;;;;;;6372163;22;20185;-93
2023/03/02 00:17:52;;;;;;;43.07;20.73;;;0.10;1.00;;;;;;6371989;22;20183;-94
2023/03/02 00:20:19;;;;;;;37.60;21.03;;;0.00;1.00;;;;;;6372030;22;20627;-93
2023/03/02 00:22:47;;;;;;;41.53;20.43;;;0.00;1.00;;;;;;6372184;22;20161;-94
2023/03/02 00:25:16;;;;;;;39.37;21.37;;;-0.10;1.00;;;;;;6372982;22;20650;-94
2023/03/02 00:27:43;;;;;;;35.97;19.67;;;-0.10;55.90;;;;;;6372042;22;20580;-94
2023/03/02 00:30:12;;;;;;;36.27;20.27;;;-0.10;99.90;;;;;;6372362;22;20172;-94
2023/03/02 00:32:39;;;;;;;43.70;20.87;;;-0.10;99.90;;;;;;6371951;22;20615;-93
2023/03/02 00:35:07;;;;;;;42.20;20.73;;;-0.10;99.90;;;;;;6372495;22;20221;-95
2023/03/02 00:37:35;;;;;;;43.87;22.10;;;-0.20;99.90;;;;;;6372358;22;20165;-93
2023/03/02 00:40:04;;;;;;;41.63;21.83;;;-0.20;99.90;;;;;;6372659;22;20530;-93
2023/03/02 00:42:34;;;;;;;40.97;21.47;;;-0.20;99.30;;;;;;6371871;22;20218;-94
2023/03/02 00:45:01;;;;;;;39.37;20.90;;;-0.30;99.90;;;;;;6372574;22;20222;-94
2023/03/02 00:47:28;;;;;;;38.57;20.47;;;-0.30;87.60;;;;;;6372038;22;20169;-93
2023/03/02 00:49:55;;;;;;;39.83;20.07;;;-0.30;99.90;;;;;;6372288;22;20188;-93
2023/03/02 00:52:22;;;;;;;40.10;21.33;;;-0.30;99.90;;;;;;6371532;22;20184;-94
2023/03/02 00:54:49;;;;;;;43.20;19.97;;;-0.40;99.90;;;;;;6372190;22;20165;-94
2023/03/02 00:57:16;;;;;;;42.10;20.80;;;-0.40;99.90;;;;;;6372261;22;20496;-93
2023/03/02 00:59:44;;;;;;;36.83;20.07;;;-0.40;99.90;;;;;;6371736;22;20165;-94
2023/03/02 01:02:11;;;;;;;38.33;20.13;;;-0.40;99.90;;;;;;6371861;22;20185;-94
2023/03/02 01:04:40;;;;;;;39.90;20.70;;;-0.40;99.90;;;;;;6371823;22;20171;-93
2023/03/02 01:07:09;;;;;;;41.90;21.23;;;-0.50;99.90;;;;;;6371741;22;20168;-94
2023/03/02 01:09:36;;;;;;;42.17;20.03;;;-0.50;99.90;;;;;;6372437;22;20175;-94
2023/03/02 01:12:04;;;;;;;41.47;19.53;;;-0.50;99.90;;;;;;6372269;22;20165;-94
2023/03/02 01:14:31;;;;;;;39.70;20.53;;;-0.50;99.90;;;;;;6372528;22;20172;-95
2023/03/02 01:16:59;;;;;;;41.23;20.63;;;-0.50;99.90;;;;;;6376815;22;20685;-95
2023/03/02 01:19:26;;;;;;;38.00;20.97;;;-0.50;99.90;;;;;;6375173;22;20642;-95
2023/03/02 01:21:53;;;;;;;38.23;19.30;;;-0.50;99.90;;;;;;6372763;22;20493;-94
2023/03/02 01:24:20;;;;;;;38.07;19.33;;;-0.50;99.90;;;;;;6371933;22;20166;-94
2023/03/02 01:26:47;;;;;;;43.37;20.10;;;-0.50;99.90;;;;;;6372250;22;20220;-94
2023/03/02 01:29:14;;;;;;;41.97;21.17;;;-0.50;99.90;;;;;;6371890;22;20176;-94
2023/03/02 01:31:41;;;;;;;40.93;20.17;;;-0.50;1.00;;;;;;6371687;22;20165;-93
2023/03/02 01:34:09;;;;;;;41.10;19.30;;;-0.40;1.00;;;;;;6371701;22;20225;-95
2023/03/02 01:36:36;;;;;;;43.43;19.87;;;-0.40;1.00;;;;;;6371491;22;20185;-93
2023/03/02 01:39:04;;;;;;;37.17;19.67;;;-0.40;1.00;;;;;;6371750;22;20172;-94
2023/03/02 01:41:31;;;;;;;39.37;19.43;;;-0.50;99.90;;;;;;6371729;22;20165;-94
2023/03/02 01:43:58;;;;;;;40.20;20.03;;;-0.50;99.90;;;;;;6371491;22;20169;-94
2023/03/02 01:46:27;;;;;;;36.63;17.00;;;-0.50;99.90;;;;;;6371418;22;20172;-95
2023/03/02 01:48:58;;;;;;;42.20;19.40;;;-0.60;1.00;;;;;;6371954;22;20192;-95
2023/03/02 01:51:29;;;;;;;42.30;20.10;;;-0.60;1.00;;;;;;6371612;22;20208;-94
2023/03/02 01:54:01;;;;;;;48.10;19.90;;;-0.60;1.00;;;;;;6371810;22;20150;-93
2023/03/02 01:56:31;;;;;;;53.87;23.20;;;-0.60;1.00;;;;;;6371747;22;20173;-93
2023/03/02 01:59:02;;;;;;;63.60;23.37;;;-0.60;1.00;;;;;;6372057;22;20267;-92
2023/03/02 02:01:30;;;;;;;69.37;24.70;;;-0.70;1.00;;;;;;6371319;22;20149;-93
2023/03/02 02:03:57;;;;;;;79.10;24.57;;;-0.60;1.00;;;;;;6371348;22;20479;-93
2023/03/02 02:06:31;;;;;;;72.67;21.93;;;-0.50;1.00;;;;;;6371344;22;20499;-94
2023/03/02 02:09:01;;;;;;;77.97;15.23;;;-0.40;96.40;;;;;;6371298;22;20615;-93
2023/03/02 02:11:27;;;;;;;98.53;19.37;;;-0.30;99.90;;;;;;6371025;22;20161;-94
2023/03/02 02:13:57;;;;;;;133.60;23.03;;;-0.10;99.90;;;;;;6371653;22;20619;-93
2023/03/02 02:16:25;;;;;;;98.37;18.83;;;-0.10;99.90;;;;;;6371315;22;20658;-93
2023/03/02 02:18:52;;;;;;;128.43;22.63;;;-0.10;99.90;;;;;;6370688;22;20470;-92
2023/03/02 02:21:20;;;;;;;112.40;19.20;;;-0.10;99.90;;;;;;6371564;22;20505;-93
2023/03/02 02:24:00;;;;;;;162.30;24.37;;;-0.10;99.90;;;;;;6370702;22;20167;-93
2023/03/02 02:26:30;;;;;;;150.93;26.43;;;-0.10;99.90;;;;;;6371382;22;20151;-93
2023/03/02 02:29:00;;;;;;;109.87;19.77;;;-0.10;99.90;;;;;;6371352;22;20171;-93
2023/03/02 02:31:35;;;;;;;105.77;19.60;;;-0.20;99.90;;;;;;6371360;22;20695;-95
2023/03/02 02:34:06;;;;;;;130.00;19.77;;;-0.20;99.90;;;;;;6371164;22;20209;-94
2023/03/02 02:36:38;;;;;;;130.70;19.63;;;-0.20;99.90;;;;;;6370977;22;20635;-94
2023/03/02 02:39:08;;;;;;;126.50;16.90;;;-0.20;99.90;;;;;;6371758;22;20173;-95
2023/03/02 02:41:39;;;;;;;106.53;16.27;;;-0.30;99.90;;;;;;6371369;22;20169;-94
2023/03/02 02:44:06;;;;;;;129.27;18.80;;;-0.30;99.90;;;;;;6371465;22;20583;-94
2023/03/02 02:46:33;;;;;;;191.73;21.03;;;-0.30;1.00;;;;;;6373404;22;20188;-94
2023/03/02 02:49:02;;;;;;;99.87;15.80;;;-0.30;1.00;;;;;;6372495;22;20252;-94
2023/03/02 02:51:29;;;;;;;138.83;18.70;;;-0.40;1.00;;;;;;6372929;22;20166;-94
2023/03/02 02:53:58;;;;;;;150.37;17.10;;;-0.40;1.00;;;;;;6372957;22;20493;-94
2023/03/02 02:56:28;;;;;;;202.87;21.73;;;-0.40;1.00;;;;;;6373162;22;20189;-93
2023/03/02 02:58:59;;;;;;;213.37;21.70;;;-0.40;37.20;;;;;;6373637;22;20171;-93
2023/03/02 03:01:26;;;;;;;203.23;18.70;;;-0.40;99.90;;;;;;6373067;22;20165;-95
2023/03/02 03:03:55;;;;;;;295.70;22.90;;;-0.40;99.90;;;;;;6372960;22;20153;-94
2023/03/02 03:06:25;;;;;;;217.73;21.23;;;-0.40;99.90;;;;;;6372764;22;20175;-94
2023/03/02 03:09:00;;;;;;;299.03;21.60;;;-0.40;92.70;;;;;;6373120;22;20176;-94
2023/03/02 03:11:30;;;;;;;199.13;16.70;;;-0.40;1.00;;;;;;6373194;22;20491;-93
2023/03/02 03:14:03;;;;;;;329.10;22.20;;;-0.50;1.00;;;;;;6373369;22;20165;-95
2023/03/02 03:16:32;;;;;;;187.10;13.87;;;-0.50;1.00;;;;;;6372937;22;20170;-94
2023/03/02 03:19:05;;;;;;;253.73;19.33;;;-0.50;2.70;;;;;;6373073;22;20172;-95
2023/03/02 03:21:32;;;;;;;219.67;16.90;;;-0.60;99.00;;;;;;6373541;22;20153;-95
2023/03/02 03:23:59;;;;;;;219.07;16.27;;;-0.60;99.90;;;;;;6372516;22;20176;-94
2023/03/02 03:26:26;;;;;;;186.53;14.50;;;-0.60;99.90;;;;;;6372711;22;20249;-93
2023/03/02 03:28:52;;;;;;;118.03;14.63;;;-0.60;99.90;;;;;;6373017;22;20667;-93
2023/03/02 03:31:21;;;;;;;125.77;13.77;;;-0.60;99.90;;;;;;6372592;22;20165;-93
2023/03/02 03:33:48;;;;;;;113.70;14.53;;;-0.60;99.90;;;;;;6373119;22;20165;-92
2023/03/02 03:36:15;;;;;;;230.57;14.93;;;-0.50;99.90;;;;;;6373105;22;20189;-93
2023/03/02 03:38:41;;;;;;;170.13;14.83;;;-0.50;1.00;;;;;;6373057;22;20175;-94
2023/03/02 03:41:08;;;;;;;148.93;13.57;;;-0.60;1.00;;;;;;6372495;22;20166;-94
2023/03/02 03:43:35;;;;;;;119.13;14.13;;;-0.60;1.00;;;;;;6372810;22;20166;-95
2023/03/02 03:46:02;;;;;;;270.27;16.60;;;-0.60;1.00;;;;;;6372735;22;20168;-94
2023/03/02 03:48:30;;;;;;;165.10;13.93;;;-0.60;1.00;;;;;;6372869;22;20488;-95
2023/03/02 03:50:58;;;;;;;117.40;13.43;;;-0.70;1.00;;;;;;6372684;22;20166;-93
2023/03/02 03:53:25;;;;;;;140.80;13.40;;;-0.70;1.00;;;;;;6372540;22;20165;-94
2023/03/02 03:55:52;;;;;;;259.03;18.63;;;-0.70;1.00;;;;;;6371946;22;20165;-95
2023/03/02 03:58:19;;;;;;;152.17;13.57;;;-0.60;1.00;;;;;;6372708;22;20166;-94
2023/03/02 04:00:46;;;;;;;176.57;14.67;;;-0.70;1.00;;;;;;6372234;22;20176;-93
2023/03/02 04:03:14;;;;;;;112.63;12.00;;;-0.70;1.00;;;;;;6372174;22;20193;-94
2023/03/02 04:05:42;;;;;;;184.97;13.60;;;-0.70;1.00;;;;;;6372382;22;20170;-93
2023/03/02 04:08:09;;;;;;;160.13;13.83;;;-0.70;1.00;;;;;;6373003;22;20687;-94
2023/03/02 04:10:36;;;;;;;198.07;13.87;;;-0.70;1.00;;;;;;6372676;22;20171;-94
2023/03/02 04:13:04;;;;;;;64.80;8.17;;;-0.70;56.80;;;;;;6371833;22;20162;-94
2023/03/02 04:15:31;;;;;;;73.47;8.60;;;-0.70;99.90;;;;;;6372095;22;20171;-94
2023/03/02 04:17:57;;;;;;;54.03;6.33;;;-0.70;99.90;;;;;;6371997;22;20489;-93
2023/03/02 04:20:25;;;;;;;162.27;13.80;;;-0.70;99.90;;;;;;6372338;22;20169;-94
2023/03/02 04:22:55;;;;;;;102.03;10.23;;;-0.70;99.90;;;;;;6371997;22;20161;-94
2023/03/02 04:25:24;;;;;;;260.50;17.00;;;-0.70;1.00;;;;;;6372302;22;20165;-94
2023/03/02 04:27:53;;;;;;;150.63;10.80;;;-0.70;1.00;;;;;;6372143;22;20183;-93
2023/03/02 04:30:21;;;;;;;126.70;10.03;;;-0.70;1.00;;;;;;6371717;22;20165;-93
2023/03/02 04:32:48;;;;;;;80.67;8.20;;;-0.70;1.00;;;;;;6372148;22;20241;-95
2023/03/02 04:35:15;;;;;;;185.70;11.63;;;-0.70;1.00;;;;;;6373226;22;20171;-94
2023/03/02 04:37:43;;;;;;;283.33;14.90;;;-0.70;1.00;;;;;;6371553;22;20188;-94
2023/03/02 04:40:12;;;;;;;164.67;10.83;;;-0.70;1.00;;;;;;6371921;22;20165;-93
2023/03/02 04:42:40;;;;;;;160.03;12.30;;;-0.70;1.00;;;;;;6372037;22;20169;-94
2023/03/02 04:45:08;;;;;;;193.47;13.87;;;-0.60;1.00;;;;;;6372170;22;20481;-95
2023/03/02 04:47:35;;;;;;;116.90;9.03;;;-0.60;1.00;;;;;;6372233;22;20630;-94
2023/03/02 04:50:01;;;;;;;178.97;11.27;;;-0.50;1.00;;;;;;6371490;22;20168;-94
2023/03/02 04:52:28;;;;;;;201.00;11.83;;;-0.50;1.00;;;;;;6371930;22;20233;-93
2023/03/02 04:54:55;;;;;;;127.37;9.27;;;-0.50;1.00;;;;;;6371602;22;20244;-94
2023/03/02 04:57:23;;;;;;;173.93;11.13;;;-0.50;1.00;;;;;;6371205;22;20248;-93
2023/03/02 04:59:50;;;;;;;103.70;10.83;;;-0.50;1.00;;;;;;6371891;22;20176;-94
2023/03/02 05:02:17;;;;;;;154.07;11.23;;;-0.40;1.00;;;;;;6371863;22;20196;-94
2023/03/02 05:04:44;;;;;;;210.13;13.67;;;-0.40;1.00;;;;;;6371751;22;20161;-93
2023/03/02 05:07:10;;;;;;;226.17;13.50;;;-0.40;1.00;;;;;;6371215;22;20510;-95
2023/03/02 05:09:37;;;;;;;111.27;9.40;;;-0.50;99.90;;;;;;6371956;22;20240;-95
2023/03/02 05:12:04;;;;;;;95.77;7.93;;;-0.40;1.00;;;;;;6371482;22;20165;-93
2023/03/02 05:14:32;;;;;;;92.23;7.63;;;-0.40;1.00;;;;;;6372240;22;20264;-94
2023/03/02 05:16:59;;;;;;;97.20;9.10;;;-0.40;1.00;;;;;;6371291;22;20188;-93
2023/03/02 05:19:26;;;;;;;80.20;5.90;;;-0.40;1.00;;;;;;6371495;22;20169;-93
2023/03/02 05:21:53;;;;;;;91.73;9.47;;;-0.40;1.00;;;;;;6371959;22;20499;-93
2023/03/02 05:24:20;;;;;;;139.67;9.70;;;-0.30;1.00;;;;;;6371659;22;20171;-94
2023/03/02 05:26:46;;;;;;;106.80;9.63;;;-0.30;1.00;;;;;;6371218;22;20599;-94
2023/03/02 05:29:13;;;;;;;77.10;8.27;;;-0.30;1.00;;;;;;6371583;22;20165;-93
2023/03/02 05:31:44;;;;;;;55.73;7.23;;;-0.30;1.00;;;;;;6371127;22;20161;-94
2023/03/02 05:34:14;;;;;;;105.73;9.13;;;-0.20;99.90;;;;;;6371749;22;20232;-95
2023/03/02 05:36:42;;;;;;;97.27;8.93;;;-0.10;99.90;;;;;;6371287;22;20170;-92
2023/03/02 05:39:09;;;;;;;94.43;8.93;;;-0.10;99.90;;;;;;6371990;22;20171;-96
2023/03/02 05:41:37;;;;;;;161.97;11.50;;;-0.10;99.90;;;;;;6370814;22;20169;-95
2023/03/02 05:44:04;;;;;;;89.80;9.03;;;0.00;99.90;;;;;;6371466;22;20197;-94
2023/03/02 05:46:31;;;;;;;49.27;7.10;;;0.00;43.70;;;;;;6371711;22;20176;-93
2023/03/02 05:48:59;;;;;;;80.97;6.97;;;0.00;7.00;;;;;;6371205;22;20506;-93
2023/03/02 05:51:27;;;;;;;117.90;8.47;;;0.10;1.00;;;;;;6371477;22;20205;-92
2023/03/02 05:53:54;;;;;;;98.70;8.87;;;0.00;1.00;;;;;;6371303;22;20252;-93
2023/03/02 05:56:21;;;;;;;128.90;8.70;;;0.00;1.00;;;;;;6371126;22;20244;-94
2023/03/02 05:58:48;;;;;;;122.30;8.90;;;0.00;1.00;;;;;;6371486;22;20234;-96
2023/03/02 06:01:14;;;;;;;124.13;7.73;;;0.00;1.00;;;;;;6371448;22;20508;-94
2023/03/02 06:03:41;;;;;;;161.17;10.17;;;0.00;1.00;;;;;;6372177;22;20173;-95
2023/03/02 06:06:12;;;;;;;108.73;8.30;;;0.00;1.00;;;;;;6381185;22;20197;-94
2023/03/02 06:08:40;;;;;;;80.07;7.27;;;0.00;1.00;;;;;;6384141;22;20153;-95
2023/03/02 06:11:07;;;;;;;155.80;9.00;;;0.10;1.00;;;;;;6376873;22;20225;-94
2023/03/02 06:13:34;;;;;;;91.30;7.57;;;0.00;1.00;;;;;;6371773;22;20611;-94
2023/03/02 06:16:01;;;;;;;71.93;6.70;;;0.00;1.00;;;;;;6371351;22;20256;-95
2023/03/02 06:18:28;;;;;;;97.67;8.70;;;0.00;1.00;;;;;;6371065;22;20181;-95
2023/03/02 06:20:55;;;;;;;100.37;8.07;;;0.10;1.00;;;;;;6373718;22;20165;-95
2023/03/02 06:23:23;;;;;;;86.30;7.43;;;0.10;1.00;;;;;;6373694;22;20626;-95
2023/03/02 06:25:50;;;;;;;147.93;9.63;;;0.20;1.00;;;;;;6373571;22;20188;-94
2023/03/02 06:28:18;;;;;;;102.73;7.90;;;0.10;1.00;;;;;;6373695;22;20201;-93
2023/03/02 06:30:47;;;;;;;157.03;9.67;;;0.20;1.00;;;;;;6373805;22;20200;-95
2023/03/02 06:33:14;;;;;;;173.27;11.00;;;0.20;1.00;;;;;;6373760;22;20205;-95
2023/03/02 06:35:41;;;;;;;157.20;9.97;;;0.20;1.00;;;;;;6373552;22;20497;-94
2023/03/02 06:38:08;;;;;;;161.67;10.27;;;0.20;1.00;;;;;;6373016;22;20181;-95
2023/03/02 06:40:36;;;;;;;104.77;8.77;;;0.30;1.00;;;;;;6373684;22;20165;-94
2023/03/02 06:43:03;;;;;;;116.53;9.00;;;0.30;1.00;;;;;;6373576;22;20252;-95
2023/03/02 06:45:32;;;;;;;175.27;11.23;;;0.30;1.00;;;;;;6373516;22;20172;-95
2023/03/02 06:47:59;;;;;;;124.23;8.27;;;0.40;1.00;;;;;;6373511;22;20236;-94
2023/03/02 06:50:27;;;;;;;127.67;9.27;;;0.40;1.00;;;;;;6373137;22;20165;-95
2023/03/02 06:52:54;;;;;;;136.10;9.23;;;0.50;1.00;;;;;;6373581;22;20169;-95
2023/03/02 06:55:20;;;;;;;132.77;9.13;;;0.50;1.00;;;;;;6373107;22;20615;-95
2023/03/02 06:57:49;;;;;;;75.87;8.23;;;0.60;1.00;;;;;;6373529;22;20192;-95
2023/03/02 07:00:17;;;;;;;57.03;6.80;;;0.60;1.00;;;;;;6373707;22;20172;-96
2023/03/02 07:02:44;;;;;;;59.63;7.90;;;0.70;1.00;;;;;;6372779;22;20193;-95
2023/03/02 07:05:11;;;;;;;85.23;8.07;;;0.80;1.00;;;;;;6373142;22;20623;-94
2023/03/02 07:07:39;;;;;;;99.70;8.53;;;0.90;99.90;;;;;;6373420;22;20248;-94
2023/03/02 07:10:07;;;;;;;126.60;9.57;;;0.90;99.90;;;;;;6373201;22;20165;-94
2023/03/02 07:12:34;;;;;;;77.93;8.90;;;1.00;99.90;;;;;;6372719;22;20237;-95
2023/03/02 07:15:04;;;;;;;88.60;8.73;;;1.10;99.90;;;;;;6372936;22;20170;-94
2023/03/02 07:17:30;;;;;;;117.03;9.17;;;1.10;99.90;;;;;;6373086;22;20186;-96
2023/03/02 07:19:57;;;;;;;68.67;8.10;;;1.20;34.10;;;;;;6373031;22;20167;-94
2023/03/02 07:22:24;;;;;;;75.73;7.40;;;1.20;1.00;;;;;;6373177;22;20172;-94
2023/03/02 07:24:51;;;;;;;84.93;9.60;;;1.20;1.00;;;;;;6372741;22;20161;-95
2023/03/02 07:27:18;;;;;;;94.73;9.13;;;1.20;53.30;;;;;;6373112;22;20616;-96
2023/03/02 07:29:44;;;;;;;58.97;8.70;;;1.20;99.90;;;;;;6373247;22;20497;-95
2023/03/02 07:32:13;;;;;;;93.30;10.33;;;1.20;17.60;;;;;;6372635;22;20266;-93
2023/03/02 07:34:40;;;;;;;66.33;9.43;;;1.20;84.60;;;;;;6372784;22;20172;-94
2023/03/02 07:37:06;;;;;;;62.67;10.90;;;1.20;80.40;;;;;;6372493;22;20165;-95
2023/03/02 07:39:33;;;;;;;74.63;10.80;;;1.30;99.90;;;;;;6372636;22;20167;-95
2023/03/02 07:42:03;;;;;;;97.67;10.63;;;1.40;99.90;;;;;;6372995;22;20167;-94
2023/03/02 07:44:30;;;;;;;74.60;9.97;;;1.40;99.90;;;;;;6373383;22;20674;-95
2023/03/02 07:46:58;;;;;;;63.00;9.73;;;1.50;1.00;;;;;;6372365;22;20166;-95
2023/03/02 07:49:26;;;;;;;78.23;11.10;;;1.50;1.00;;;;;;6373024;22;20223;-94
2023/03/02 07:51:53;;;;;;;69.50;11.00;;;1.50;27.30;;;;;;6372743;22;20166;-95
2023/03/02 07:54:20;;;;;;;44.67;9.07;;;1.50;59.90;;;;;;6372385;22;20642;-95
2023/03/02 07:56:46;;;;;;;57.07;10.43;;;1.60;20.30;;;;;;6373294;22;20177;-94
2023/03/02 07:59:14;;;;;;;63.60;9.97;;;1.70;1.00;;;;;;6372959;22;20189;-94
2023/03/02 08:01:41;;;;;;;94.83;12.50;;;1.70;1.00;;;;;;6372272;22;20266;-94
2023/03/02 08:04:07;;;;;;;74.50;11.90;;;1.80;1.00;;;;;;6372336;22;20659;-96
2023/03/02 08:06:36;;;;;;;46.93;10.10;;;1.90;1.00;;;;;;6372526;22;20169;-95
2023/03/02 08:09:04;;;;;;;51.07;10.27;;;2.00;1.00;;;;;;6372948;22;20245;-94
2023/03/02 08:11:31;;;;;;;41.53;9.13;;;2.10;1.00;;;;;;6372219;22;20166;-95
2023/03/02 08:13:59;;;;;;;31.60;8.57;;;2.10;1.00;;;;;;6372595;22;20170;-95
2023/03/02 08:16:26;;;;;;;37.53;9.77;;;2.20;1.00;;;;;;6372662;22;20173;-95
2023/03/02 08:18:53;;;;;;;33.00;10.33;;;2.40;1.00;;;;;;6372213;22;20676;-95
2023/03/02 08:21:22;;;;;;;57.93;11.57;;;2.50;99.90;;;;;;6372572;22;20172;-95
2023/03/02 08:23:51;;;;;;;57.23;11.30;;;2.50;99.90;;;;;;6372536;22;20171;-94
2023/03/02 08:26:19;;;;;;;45.17;10.17;;;2.50;99.90;;;;;;6372644;22;20512;-94
2023/03/02 08:28:46;;;;;;;53.20;11.43;;;2.50;99.90;;;;;;6372660;22;20168;-95
2023/03/02 08:31:13;;;;;;;43.17;10.50;;;2.50;1.00;;;;;;6372070;22;20162;-95
2023/03/02 08:33:40;;;;;;;37.57;10.50;;;2.50;99.90;;;;;;6372653;22;20174;-92
2023/03/02 08:36:08;;;;;;;41.83;11.53;;;2.50;99.90;;;;;;6372382;22;20168;-95
2023/03/02 08:38:36;;;;;;;49.23;11.37;;;2.60;99.90;;;;;;6372343;22;20185;-94
2023/03/02 08:41:06;;;;;;;46.03;10.57;;;2.70;99.90;;;;;;6372744;22;20504;-94
2023/03/02 08:43:33;;;;;;;36.80;11.07;;;2.80;1.00;;;;;;6372231;22;20156;-94
2023/03/02 08:46:00;;;;;;;53.10;12.33;;;2.80;1.00;;;;;;6372445;22;20165;-95
2023/03/02 08:48:28;;;;;;;41.23;12.00;;;2.90;1.00;;;;;;6372416;22;20171;-94
2023/03/02 08:50:56;;;;;;;39.67;10.67;;;3.00;1.00;;;;;;6372324;22;20168;-95
2023/03/02 08:53:23;;;;;;;49.30;19.67;;;3.10;1.00;;;;;;6372718;22;20168;-95
2023/03/02 08:55:50;;;;;;;46.83;11.50;;;3.20;1.00;;;;;;6372034;22;20169;-94
2023/03/02 08:58:19;;;;;;;49.93;11.00;;;3.30;1.00;;;;;;6372254;22;20221;-95
2023/03/02 09:00:46;;;;;;;54.40;12.10;;;3.40;99.90;;;;;;6372323;22;20177;-95
2023/03/02 09:03:13;;;;;;;58.37;12.83;;;3.40;99.90;;;;;;6372150;22;20197;-95
2023/03/02 09:05:39;;;;;;;44.90;12.57;;;3.40;99.90;;;;;;6372444;22;20165;-96
2023/03/02 09:08:07;;;;;;;42.70;10.07;;;3.40;99.90;;;;;;6372277;22;20242;-95
2023/03/02 09:10:35;;;;;;;59.50;11.97;;;3.40;99.90;;;;;;6372252;22;20172;-95
2023/03/02 09:13:01;;;;;;;59.83;10.80;;;3.60;99.90;;;;;;6372186;22;20171;-95
2023/03/02 09:15:30;;;;;;;42.53;10.70;;;3.60;99.90;;;;;;6372400;22;20175;-95
2023/03/02 09:17:57;;;;;;;41.10;11.13;;;3.70;22.10;;;;;;6372046;22;20181;-95
2023/03/02 09:20:23;;;;;;;29.47;10.30;;;3.70;22.70;;;;;;6371893;22;20491;-95
2023/03/02 09:22:50;;;;;;;29.63;10.90;;;3.70;1.00;;;;;;6372380;22;20165;-95
2023/03/02 09:25:18;;;;;;;31.50;10.90;;;3.70;1.00;;;;;;6371678;22;20164;-95
2023/03/02 09:27:45;;;;;;;53.70;11.67;;;3.80;1.00;;;;;;6371804;22;20627;-96
2023/03/02 09:30:14;;;;;;;41.07;10.57;;;3.80;1.00;;;;;;6372187;22;20252;-95
2023/03/02 09:32:42;;;;;;;37.30;10.87;;;3.80;1.00;;;;;;6372069;22;20165;-95
2023/03/02 09:35:09;;;;;;;45.80;11.10;;;3.90;1.00;;;;;;6371823;22;20187;-96
2023/03/02 09:37:37;;;;;;;38.83;10.57;;;3.90;1.00;;;;;;6371614;22;20627;-95
2023/03/02 09:40:12;;;;;;;30.30;10.20;;;4.00;1.00;;;;;;6372287;22;20498;-96
2023/03/02 09:42:59;;;;;;;47.03;11.13;;;3.90;1.00;;;;;;6372482;22;20594;-95
2023/03/02 09:45:48;;;;;;;32.40;10.57;;;3.90;1.00;;;;;;6372400;22;20149;-95
2023/03/02 09:48:27;;;;;;;29.37;10.30;;;4.00;1.00;;;;;;6355662;22;20164;-95
2023/03/02 09:51:05;;;;;;;39.67;10.97;;;4.10;1.00;;;;;;6372075;22;20156;-95
2023/03/02 09:53:41;;;;;;;40.27;11.37;;;4.10;1.00;;;;;;6372288;22;20149;-96
2023/03/02 09:56:15;;;;;;;26.73;10.50;;;4.20;99.90;;;;;;6372184;22;20232;-95
2023/03/02 09:58:48;;;;;;;33.07;10.90;;;4.10;99.90;;;;;;6371904;22;20247;-96
2023/03/02 10:01:20;;;;;;;34.13;10.53;;;4.10;99.90;;;;;;6372220;22;20595;-95
2023/03/02 10:03:55;;;;;;;31.77;11.07;;;4.10;99.90;;;;;;6371552;22;20160;-95
2023/03/02 10:06:21;;;;;;;23.47;10.83;;;4.10;99.90;;;;;;6372133;22;20231;-96
2023/03/02 10:08:49;;;;;;;24.20;10.47;;;4.20;99.90;;;;;;6372074;22;20172;-96
2023/03/02 10:11:22;;;;;;;18.63;9.27;;;4.20;99.90;;;;;;6371423;22;20165;-96
2023/03/02 10:13:53;;;;;;;23.83;9.60;;;4.30;99.90;;;;;;6371829;22;20150;-95
2023/03/02 10:16:30;;;;;;;31.83;10.43;;;4.30;99.90;;;;;;6371592;22;20233;-96
2023/03/02 10:19:07;;;;;;;29.13;10.53;;;4.20;82.60;;;;;;6372039;22;20252;-96
2023/03/02 10:21:39;;;;;;;21.70;9.33;;;4.20;21.40;;;;;;6371783;22;20160;-95
2023/03/02 10:24:16;;;;;;;23.57;10.20;;;4.10;99.90;;;;;;6372122;22;20303;-95
2023/03/02 10:26:46;;;;;;;20.37;8.87;;;4.10;99.90;;;;;;6372511;22;20157;-96
2023/03/02 10:29:33;;;;;;;18.77;9.23;;;4.20;99.90;;;;;;6372730;22;20180;-96
2023/03/02 10:32:06;;;;;;;19.60;9.43;;;4.30;99.90;;;;;;6373309;22;20185;-96
2023/03/02 10:34:37;;;;;;;18.90;8.87;;;4.50;6.10;;;;;;6373070;22;20240;-96
2023/03/02 10:37:11;;;;;;;27.33;12.63;;;4.60;1.00;;;;;;6373675;22;20150;-95
2023/03/02 10:39:38;;;;;;;26.50;11.33;;;4.70;1.00;;;;;;6373558;22;20173;-96
2023/03/02 10:42:11;;;;;;;25.30;10.77;;;4.70;1.00;;;;;;6373357;22;20620;-95
2023/03/02 10:44:42;;;;;;;26.87;11.63;;;4.80;1.00;;;;;;6374018;22;20596;-96
2023/03/02 10:47:21;;;;;;;30.03;13.23;;;4.70;1.00;;;;;;6375028;22;20233;-96
2023/03/02 10:49:50;;;;;;;25.57;11.67;;;4.70;1.00;;;;;;6375802;22;20205;-96
2023/03/02 10:52:19;;;;;;;24.00;11.73;;;4.90;1.00;;;;;;6374499;22;20248;-95
2023/03/02 10:54:47;;;;;;;25.37;11.97;;;4.90;1.00;;;;;;6374833;22;20179;-95
2023/03/02 10:57:34;;;;;;;27.93;10.03;;;4.90;1.00;;;;;;6375457;22;20674;-95
2023/03/02 11:00:04;;;;;;;23.13;10.57;;;5.00;1.00;;;;;;6376058;22;20194;-96
2023/03/02 11:02:34;;;;;;;22.00;10.10;;;5.00;1.00;;;;;;6376035;22;20252;-95
2023/03/02 11:05:24;;;;;;;22.40;10.33;;;5.00;99.90;;;;;;6377115;22;20150;-95
2023/03/02 11:07:55;;;;;;;29.63;12.63;;;5.00;99.90;;;;;;6380098;22;20236;-96
2023/03/02 11:10:23;;;;;;;27.70;11.00;;;4.90;99.90;;;;;;6381080;22;20167;-95
2023/03/02 11:12:52;;;;;;;23.90;11.23;;;4.80;99.90;;;;;;6383194;22;20189;-95
2023/03/02 11:15:28;;;;;;;29.17;11.73;;;4.60;99.90;;;;;;6382907;22;20619;-95
2023/03/02 11:18:00;;;;;;;31.67;12.00;;;4.50;99.90;;;;;;6383993;22;20205;-96
2023/03/02 11:20:32;;;;;;;25.63;11.70;;;4.40;99.90;;;;;;6382162;22;20176;-96
2023/03/02 11:23:21;;;;;;;35.70;11.53;;;4.40;99.90;;;;;;6381106;22;20154;-95
2023/03/02 11:25:53;;;;;;;24.40;10.67;;;4.30;99.90;;;;;;6380633;22;20185;-96
2023/03/02 11:28:41;;;;;;;20.00;8.50;;;4.30;24.50;;;;;;6383161;22;20157;-96
2023/03/02 11:31:16;;;;;;;27.17;11.07;;;4.10;42.90;;;;;;6384957;22;20161;-96
2023/03/02 11:33:51;;;;;;;23.97;9.97;;;3.90;66.50;;;;;;6386907;22;20145;-95
2023/03/02 11:36:27;;;;;;;21.73;9.57;;;3.80;53.50;;;;;;6386368;22;20154;-95
2023/03/02 11:38:55;;;;;;;23.00;9.87;;;3.70;54.60;;;;;;6387531;22;20200;-96
2023/03/02 11:41:29;;;;;;;24.83;10.80;;;3.70;99.90;;;;;;6388283;22;20193;-96
2023/03/02 11:43:58;;;;;;;25.50;11.20;;;3.80;99.90;;;;;;6388510;22;20157;-96
2023/03/02 11:46:29;;;;;;;26.90;11.73;;;3.90;99.90;;;;;;6389189;22;20171;-95
2023/03/02 11:48:59;;;;;;;30.33;12.43;;;4.10;99.90;;;;;;6390650;22;20153;-96
2023/03/02 11:51:29;;;;;;;29.43;11.60;;;4.30;99.90;;;;;;6390077;22;20164;-96
2023/03/02 11:54:02;;;;;;;22.43;10.23;;;4.30;12.30;;;;;;6389846;22;20154;-95
2023/03/02 11:56:31;;;;;;;27.27;11.73;;;4.40;18.80;;;;;;6392653;22;20213;-96
2023/03/02 11:59:03;;;;;;;26.40;11.17;;;4.40;1.00;;;;;;6389499;22;20185;-96
2023/03/02 12:01:33;;;;;;;22.73;10.37;;;4.30;1.00;;;;;;6386879;22;20153;-96
2023/03/02 12:04:08;;;;;;;20.17;9.67;;;4.40;1.00;;;;;;6386155;22;20165;-96
2023/03/02 12:06:39;;;;;;;23.27;11.30;;;4.40;1.00;;;;;;6383951;22;20153;-96
2023/03/02 12:09:32;;;;;;;22.53;10.00;;;4.50;1.00;;;;;;6382328;22;20176;-95
2023/03/02 12:12:15;;;;;;;23.63;10.23;;;4.50;1.00;;;;;;6376729;22;20176;-96
2023/03/02 12:14:43;;;;;;;27.07;11.97;;;4.70;1.00;;;;;;6385094;22;20173;-96
2023/03/02 12:17:22;;;;;;;25.03;11.03;;;4.70;1.00;;;;;;6385289;22;20169;-95
2023/03/02 12:19:50;;;;;;;22.67;10.80;;;4.60;1.00;;;;;;6384539;22;20204;-95
2023/03/02 12:22:29;;;;;;;28.67;10.87;;;4.60;1.00;;;;;;6384288;22;20186;-95
2023/03/02 12:25:04;;;;;;;26.33;12.03;;;4.50;1.00;;;;;;6381226;22;20607;-95
2023/03/02 12:27:36;;;;;;;28.97;11.60;;;4.50;1.00;;;;;;6379385;22;20153;-96
2023/03/02 12:30:23;;;;;;;28.83;12.37;;;4.60;1.00;;;;;;6379240;22;20225;-95
2023/03/02 12:33:01;;;;;;;25.67;11.10;;;4.70;1.00;;;;;;6377760;22;20220;-95
2023/03/02 12:35:31;;;;;;;28.60;11.70;;;4.70;1.00;;;;;;6379111;22;20180;-94
2023/03/02 12:38:01;;;;;;;24.30;11.60;;;4.70;1.00;;;;;;6378778;22;20505;-95
2023/03/02 12:40:44;;;;;;;26.63;11.80;;;4.60;1.00;;;;;;6375961;22;20231;-96
2023/03/02 12:43:26;;;;;;;31.43;12.13;;;4.60;1.00;;;;;;6375612;22;20236;-96
2023/03/02 12:46:22;;;;;;;27.80;12.23;;;4.60;1.00;;;;;;6374807;22;20150;-95
2023/03/02 12:49:08;;;;;;;24.27;11.60;;;4.70;1.00;;;;;;6375651;22;20165;-95